sensor_id;sensor_type;location;lat;lon;timestamp;pressure;altitude;pressure_sealevel;temperature;humidity
5883;BME280;2967;51.488;6.618;2022-09-17T00:03:36;100946.28;;;13.60;100.00
5883;BME280;2967;51.488;6.618;2022-09-17T00:08:40;100876.44;;;13.24;100.00
5883;BME280;2967;51.488;6.618;2022-09-17T00:13:43;100945.44;;;13.60;100.00
5883;BME280;2967;51.488;6.618;2022-09-17T00:18:46;100955.56;;;13.55;100.00
5883;BME280;2967;51.488;6.618;2022-09-17T00:23:54;100951.84;;;13.57;100.00
5883;BME280;2967;51.488;6.618;2022-09-17T00:28:58;100846.81;;;12.82;100.00
5883;BME280;2967;51.488;6.618;2022-09-17T00:34:02;100946.81;;;13.42;100.00
5883;BME280;2967;51.488;6.618;2022-09-17T00:39:08;100928.09;;;13.43;100.00
5883;BME280;2967;51.488;6.618;2022-09-17T00:44:42;100945.25;;;13.50;100.00
5883;BME280;2967;51.488;6.618;2022-09-17T00:49:46;100951.38;;;13.40;100.00
5883;BME280;2967;51.488;6.618;2022-09-17T00:55:00;100963.13;;;13.48;100.00
5883;BME280;2967;51.488;6.618;2022-09-17T01:00:05;100953.19;;;13.39;100.00
5883;BME280;2967;51.488;6.618;2022-09-17T01:05:10;100705.06;;;11.78;100.00
5883;BME280;2967;51.488;6.618;2022-09-17T01:10:26;100963.81;;;13.39;100.00
5883;BME280;2967;51.488;6.618;2022-09-17T01:15:39;100962.47;;;13.34;100.00
5883;BME280;2967;51.488;6.618;2022-09-17T01:26:49;100965.91;;;13.23;100.00
5883;BME280;2967;51.488;6.618;2022-09-17T01:32:08;100808.13;;;12.43;100.00
5883;BME280;2967;51.488;6.618;2022-09-17T01:37:16;100945.81;;;13.19;100.00
5883;BME280;2967;51.488;6.618;2022-09-17T01:42:24;100934.50;;;13.05;100.00
5883;BME280;2967;51.488;6.618;2022-09-17T01:47:33;100974.78;;;13.35;100.00
5883;BME280;2967;51.488;6.618;2022-09-17T01:52:39;100965.22;;;13.32;100.00
5883;BME280;2967;51.488;6.618;2022-09-17T01:57:47;100979.38;;;13.33;100.00
5883;BME280;2967;51.488;6.618;2022-09-17T02:03:01;100889.63;;;12.77;100.00
5883;BME280;2967;51.488;6.618;2022-09-17T02:08:08;100913.09;;;12.83;100.00
5883;BME280;2967;51.488;6.618;2022-09-17T02:13:15;100935.25;;;13.07;100.00
5883;BME280;2967;51.488;6.618;2022-09-17T02:18:26;100956.69;;;13.17;100.00
5883;BME280;2967;51.488;6.618;2022-09-17T02:23:34;100975.34;;;13.27;100.00
5883;BME280;2967;51.488;6.618;2022-09-17T02:28:42;100910.03;;;12.77;100.00
5883;BME280;2967;51.488;6.618;2022-09-17T02:33:51;100980.03;;;13.24;100.00
5883;BME280;2967;51.488;6.618;2022-09-17T02:38:58;100992.69;;;13.20;100.00
5883;BME280;2967;51.488;6.618;2022-09-17T02:44:09;100895.72;;;12.67;100.00
5883;BME280;2967;51.488;6.618;2022-09-17T02:49:33;100996.75;;;13.14;100.00
5883;BME280;2967;51.488;6.618;2022-09-17T02:54:43;100972.88;;;13.01;100.00
5883;BME280;2967;51.488;6.618;2022-09-17T02:59:55;100941.88;;;12.89;100.00
5883;BME280;2967;51.488;6.618;2022-09-17T03:05:05;100957.19;;;12.98;100.00
5883;BME280;2967;51.488;6.618;2022-09-17T03:10:09;100940.78;;;12.92;100.00
5883;BME280;2967;51.488;6.618;2022-09-17T03:15:13;100990.41;;;13.27;100.00
5883;BME280;2967;51.488;6.618;2022-09-17T03:20:17;100942.28;;;12.83;100.00
5883;BME280;2967;51.488;6.618;2022-09-17T03:25:20;101002.25;;;13.23;100.00
5883;BME280;2967;51.488;6.618;2022-09-17T03:30:23;100997.88;;;13.22;100.00
5883;BME280;2967;51.488;6.618;2022-09-17T03:35:27;100879.28;;;12.62;100.00
5883;BME280;2967;51.488;6.618;2022-09-17T03:40:30;100994.66;;;13.29;100.00
5883;BME280;2967;51.488;6.618;2022-09-17T03:45:33;100936.56;;;12.89;100.00
5883;BME280;2967;51.488;6.618;2022-09-17T03:50:37;101012.97;;;13.21;100.00
5883;BME280;2967;51.488;6.618;2022-09-17T03:55:41;101020.44;;;13.17;100.00
5883;BME280;2967;51.488;6.618;2022-09-17T04:00:43;100953.88;;;12.70;100.00
5883;BME280;2967;51.488;6.618;2022-09-17T04:05:48;100983.59;;;12.87;100.00
5883;BME280;2967;51.488;6.618;2022-09-17T04:10:50;101027.22;;;13.20;100.00
5883;BME280;2967;51.488;6.618;2022-09-17T04:15:53;100948.47;;;12.71;100.00
5883;BME280;2967;51.488;6.618;2022-09-17T04:20:57;101038.06;;;13.18;100.00
5883;BME280;2967;51.488;6.618;2022-09-17T04:26:00;100942.03;;;12.50;100.00
5883;BME280;2967;51.488;6.618;2022-09-17T04:31:03;101035.31;;;13.07;100.00
5883;BME280;2967;51.488;6.618;2022-09-17T04:36:07;100837.59;;;11.90;100.00
5883;BME280;2967;51.488;6.618;2022-09-17T04:41:10;100846.25;;;11.80;100.00
5883;BME280;2967;51.488;6.618;2022-09-17T04:46:13;101031.06;;;12.92;100.00
5883;BME280;2967;51.488;6.618;2022-09-17T04:51:18;101030.75;;;12.84;100.00
5883;BME280;2967;51.488;6.618;2022-09-17T04:56:21;101039.16;;;12.90;100.00
5883;BME280;2967;51.488;6.618;2022-09-17T05:01:25;101026.59;;;12.67;100.00
5883;BME280;2967;51.488;6.618;2022-09-17T05:06:30;101052.00;;;12.84;100.00
5883;BME280;2967;51.488;6.618;2022-09-17T05:11:38;101056.66;;;12.80;100.00
5883;BME280;2967;51.488;6.618;2022-09-17T05:16:41;101063.56;;;12.83;100.00
5883;BME280;2967;51.488;6.618;2022-09-17T05:21:45;100781.19;;;11.12;100.00
5883;BME280;2967;51.488;6.618;2022-09-17T05:26:48;101061.34;;;12.77;100.00
5883;BME280;2967;51.488;6.618;2022-09-17T05:31:51;101025.13;;;12.63;100.00
5883;BME280;2967;51.488;6.618;2022-09-17T05:36:55;101072.94;;;12.88;100.00
5883;BME280;2967;51.488;6.618;2022-09-17T05:41:58;101062.94;;;12.79;100.00
5883;BME280;2967;51.488;6.618;2022-09-17T05:47:02;100992.22;;;12.41;100.00
5883;BME280;2967;51.488;6.618;2022-09-17T05:52:06;101064.41;;;12.83;100.00
5883;BME280;2967;51.488;6.618;2022-09-17T05:57:09;101075.13;;;12.82;100.00
5883;BME280;2967;51.488;6.618;2022-09-17T06:02:12;101069.72;;;12.71;100.00
5883;BME280;2967;51.488;6.618;2022-09-17T06:07:16;101093.19;;;12.77;100.00
5883;BME280;2967;51.488;6.618;2022-09-17T06:12:19;101095.75;;;12.78;100.00
5883;BME280;2967;51.488;6.618;2022-09-17T06:17:22;101104.22;;;12.71;100.00
5883;BME280;2967;51.488;6.618;2022-09-17T06:22:26;101084.78;;;12.58;100.00
5883;BME280;2967;51.488;6.618;2022-09-17T06:27:29;101112.00;;;12.74;100.00
5883;BME280;2967;51.488;6.618;2022-09-17T06:32:32;101061.09;;;12.42;100.00
5883;BME280;2967;51.488;6.618;2022-09-17T06:37:36;101120.69;;;12.76;100.00
5883;BME280;2967;51.488;6.618;2022-09-17T06:42:40;101124.28;;;12.87;100.00
5883;BME280;2967;51.488;6.618;2022-09-17T06:47:43;101124.09;;;12.90;100.00
5883;BME280;2967;51.488;6.618;2022-09-17T06:52:48;101077.38;;;12.75;100.00
5883;BME280;2967;51.488;6.618;2022-09-17T06:57:51;101000.09;;;12.42;100.00
5883;BME280;2967;51.488;6.618;2022-09-17T07:02:55;101113.09;;;13.09;100.00
5883;BME280;2967;51.488;6.618;2022-09-17T07:08:01;101081.41;;;12.93;100.00
5883;BME280;2967;51.488;6.618;2022-09-17T07:13:04;101123.47;;;13.24;100.00
5883;BME280;2967;51.488;6.618;2022-09-17T07:18:07;101136.84;;;13.35;100.00
5883;BME280;2967;51.488;6.618;2022-09-17T07:23:13;101127.28;;;13.45;100.00
5883;BME280;2967;51.488;6.618;2022-09-17T07:28:15;101090.53;;;13.26;100.00
5883;BME280;2967;51.488;6.618;2022-09-17T07:33:20;101122.28;;;13.53;100.00
5883;BME280;2967;51.488;6.618;2022-09-17T07:38:27;101123.72;;;13.69;100.00
5883;BME280;2967;51.488;6.618;2022-09-17T07:43:31;101115.50;;;13.72;100.00
5883;BME280;2967;51.488;6.618;2022-09-17T07:48:33;101114.31;;;13.89;100.00
5883;BME280;2967;51.488;6.618;2022-09-17T07:53:37;100839.13;;;12.30;100.00
5883;BME280;2967;51.488;6.618;2022-09-17T07:58:42;101117.97;;;13.99;100.00
5883;BME280;2967;51.488;6.618;2022-09-17T08:03:47;101116.75;;;14.15;100.00
5883;BME280;2967;51.488;6.618;2022-09-17T08:08:52;101090.09;;;14.04;100.00
5883;BME280;2967;51.488;6.618;2022-09-17T08:13:55;100987.84;;;13.38;100.00
5883;BME280;2967;51.488;6.618;2022-09-17T08:18:57;100973.31;;;13.31;100.00
5883;BME280;2967;51.488;6.618;2022-09-17T08:24:02;101063.53;;;13.92;100.00
5883;BME280;2967;51.488;6.618;2022-09-17T08:29:05;101123.44;;;14.44;100.00
5883;BME280;2967;51.488;6.618;2022-09-17T08:34:08;101129.41;;;14.59;100.00
5883;BME280;2967;51.488;6.618;2022-09-17T08:39:12;101100.94;;;14.48;100.00
5883;BME280;2967;51.488;6.618;2022-09-17T08:44:23;101129.13;;;14.85;100.00
5883;BME280;2967;51.488;6.618;2022-09-17T08:49:33;101125.09;;;14.80;100.00
5883;BME280;2967;51.488;6.618;2022-09-17T08:54:41;101030.59;;;14.29;99.28
5883;BME280;2967;51.488;6.618;2022-09-17T08:59:53;100887.69;;;13.27;100.00
5883;BME280;2967;51.488;6.618;2022-09-17T09:05:02;101134.81;;;15.03;99.36
5883;BME280;2967;51.488;6.618;2022-09-17T09:10:18;101124.69;;;15.19;98.10
5883;BME280;2967;51.488;6.618;2022-09-17T09:15:32;101136.94;;;15.32;96.11
5883;BME280;2967;51.488;6.618;2022-09-17T09:20:42;100983.44;;;14.42;96.01
5883;BME280;2967;51.488;6.618;2022-09-17T09:26:02;100927.84;;;14.15;95.14
5883;BME280;2967;51.488;6.618;2022-09-17T09:31:30;101044.59;;;14.76;95.59
5883;BME280;2967;51.488;6.618;2022-09-17T09:36:37;101096.44;;;15.05;96.14
5883;BME280;2967;51.488;6.618;2022-09-17T09:41:45;101136.09;;;15.32;93.96
5883;BME280;2967;51.488;6.618;2022-09-17T09:47:15;101105.91;;;15.31;93.58
5883;BME280;2967;51.488;6.618;2022-09-17T09:52:37;100897.34;;;13.97;90.86
5883;BME280;2967;51.488;6.618;2022-09-17T09:57:54;101102.03;;;15.24;93.51
5883;BME280;2967;51.488;6.618;2022-09-17T10:03:03;100977.75;;;14.46;93.39
5883;BME280;2967;51.488;6.618;2022-09-17T10:08:15;100838.56;;;13.89;92.90
5883;BME280;2967;51.488;6.618;2022-09-17T10:13:20;101122.88;;;15.52;91.05
5883;BME280;2967;51.488;6.618;2022-09-17T10:18:24;100938.78;;;14.34;95.75
5883;BME280;2967;51.488;6.618;2022-09-17T10:23:27;101075.50;;;15.12;100.00
5883;BME280;2967;51.488;6.618;2022-09-17T10:28:44;101072.94;;;14.88;100.00
5883;BME280;2967;51.488;6.618;2022-09-17T10:33:51;101099.81;;;14.96;98.53
5883;BME280;2967;51.488;6.618;2022-09-17T10:38:55;101072.94;;;14.88;99.20
5883;BME280;2967;51.488;6.618;2022-09-17T10:44:16;101093.91;;;15.26;98.41
5883;BME280;2967;51.488;6.618;2022-09-17T10:49:31;101031.25;;;15.20;90.76
5883;BME280;2967;51.488;6.618;2022-09-17T10:55:03;100876.09;;;14.52;87.94
5883;BME280;2967;51.488;6.618;2022-09-17T11:00:15;101007.63;;;15.27;87.38
5883;BME280;2967;51.488;6.618;2022-09-17T11:05:39;101134.88;;;15.69;87.54
5883;BME280;2967;51.488;6.618;2022-09-17T11:10:51;101147.59;;;15.32;91.59
5883;BME280;2967;51.488;6.618;2022-09-17T11:16:17;101147.03;;;14.83;97.41
5883;BME280;2967;51.488;6.618;2022-09-17T11:21:38;101165.19;;;14.55;100.00
5883;BME280;2967;51.488;6.618;2022-09-17T11:26:47;101153.53;;;14.45;100.00
5883;BME280;2967;51.488;6.618;2022-09-17T11:32:01;101099.75;;;14.05;100.00
5883;BME280;2967;51.488;6.618;2022-09-17T11:37:09;101138.22;;;14.25;100.00
5883;BME280;2967;51.488;6.618;2022-09-17T11:42:19;101115.81;;;14.04;100.00
5883;BME280;2967;51.488;6.618;2022-09-17T11:47:28;101158.56;;;14.13;100.00
5883;BME280;2967;51.488;6.618;2022-09-17T11:52:34;101163.03;;;14.13;100.00
5883;BME280;2967;51.488;6.618;2022-09-17T11:57:42;101049.34;;;13.09;100.00
5883;BME280;2967;51.488;6.618;2022-09-17T12:02:51;101132.91;;;13.53;100.00
5883;BME280;2967;51.488;6.618;2022-09-17T12:07:59;101149.38;;;13.58;100.00
5883;BME280;2967;51.488;6.618;2022-09-17T12:13:17;101110.38;;;13.46;100.00
5883;BME280;2967;51.488;6.618;2022-09-17T12:18:29;101027.66;;;13.15;100.00
5883;BME280;2967;51.488;6.618;2022-09-17T12:23:38;101114.56;;;13.97;100.00
5883;BME280;2967;51.488;6.618;2022-09-17T12:28:49;100935.50;;;13.51;100.00
5883;BME280;2967;51.488;6.618;2022-09-17T12:33:59;101034.84;;;14.42;100.00
5883;BME280;2967;51.488;6.618;2022-09-17T12:39:35;100926.66;;;14.19;100.00
5883;BME280;2967;51.488;6.618;2022-09-17T12:44:57;101003.19;;;15.16;100.00
5883;BME280;2967;51.488;6.618;2022-09-17T12:50:15;100966.22;;;15.23;100.00
5883;BME280;2967;51.488;6.618;2022-09-17T12:55:29;101083.16;;;16.23;100.00
5883;BME280;2967;51.488;6.618;2022-09-17T13:00:40;101024.97;;;16.17;100.00
5883;BME280;2967;51.488;6.618;2022-09-17T13:05:58;100996.38;;;16.39;100.00
5883;BME280;2967;51.488;6.618;2022-09-17T13:11:29;101060.69;;;17.07;100.00
5883;BME280;2967;51.488;6.618;2022-09-17T13:16:44;101044.13;;;17.43;99.52
5883;BME280;2967;51.488;6.618;2022-09-17T13:21:52;100986.72;;;17.17;98.60
5883;BME280;2967;51.488;6.618;2022-09-17T13:26:57;100991.59;;;16.73;98.15
5883;BME280;2967;51.488;6.618;2022-09-17T13:32:02;101136.84;;;16.09;100.00
5883;BME280;2967;51.488;6.618;2022-09-17T13:37:16;101055.25;;;14.87;100.00
5883;BME280;2967;51.488;6.618;2022-09-17T13:42:22;101028.56;;;14.43;100.00
5883;BME280;2967;51.488;6.618;2022-09-17T13:47:30;101104.38;;;14.72;100.00
5883;BME280;2967;51.488;6.618;2022-09-17T13:52:40;101055.53;;;14.39;100.00
5883;BME280;2967;51.488;6.618;2022-09-17T13:57:48;101094.84;;;14.92;100.00
5883;BME280;2967;51.488;6.618;2022-09-17T14:02:52;101045.19;;;14.69;100.00
5883;BME280;2967;51.488;6.618;2022-09-17T14:08:26;100994.09;;;14.53;100.00
5883;BME280;2967;51.488;6.618;2022-09-17T14:13:43;100989.59;;;14.42;100.00
5883;BME280;2967;51.488;6.618;2022-09-17T14:18:57;101074.25;;;14.94;100.00
5883;BME280;2967;51.488;6.618;2022-09-17T14:24:18;101092.56;;;14.98;100.00
5883;BME280;2967;51.488;6.618;2022-09-17T14:29:32;101060.69;;;14.86;100.00
5883;BME280;2967;51.488;6.618;2022-09-17T14:34:43;101077.66;;;14.96;100.00
5883;BME280;2967;51.488;6.618;2022-09-17T14:39:48;101007.88;;;14.58;100.00
5883;BME280;2967;51.488;6.618;2022-09-17T14:44:56;101085.66;;;15.18;100.00
5883;BME280;2967;51.488;6.618;2022-09-17T14:50:19;101029.22;;;14.69;100.00
5883;BME280;2967;51.488;6.618;2022-09-17T14:55:25;101074.78;;;15.21;100.00
5883;BME280;2967;51.488;6.618;2022-09-17T15:00:32;101089.09;;;15.42;100.00
5883;BME280;2967;51.488;6.618;2022-09-17T15:05:46;101012.75;;;14.97;100.00
5883;BME280;2967;51.488;6.618;2022-09-17T15:10:55;101086.66;;;15.50;100.00
5883;BME280;2967;51.488;6.618;2022-09-17T15:16:00;100982.13;;;14.80;100.00
5883;BME280;2967;51.488;6.618;2022-09-17T15:21:13;101051.75;;;15.20;99.72
5883;BME280;2967;51.488;6.618;2022-09-17T15:26:39;100793.31;;;13.56;99.67
5883;BME280;2967;51.488;6.618;2022-09-17T15:31:44;101110.28;;;15.32;100.00
5883;BME280;2967;51.488;6.618;2022-09-17T15:37:02;101003.91;;;14.63;99.15
5883;BME280;2967;51.488;6.618;2022-09-17T15:42:16;100958.50;;;14.32;95.32
5883;BME280;2967;51.488;6.618;2022-09-17T15:47:46;101097.91;;;15.20;94.79
5883;BME280;2967;51.488;6.618;2022-09-17T15:53:09;100975.09;;;14.35;92.70
5883;BME280;2967;51.488;6.618;2022-09-17T15:58:22;101137.84;;;15.09;95.76
5883;BME280;2967;51.488;6.618;2022-09-17T16:04:00;101104.06;;;14.99;98.45
5883;BME280;2967;51.488;6.618;2022-09-17T16:09:38;101039.09;;;14.56;98.73
5883;BME280;2967;51.488;6.618;2022-09-17T16:14:50;101065.97;;;14.53;99.63
5883;BME280;2967;51.488;6.618;2022-09-17T16:19:56;101124.78;;;14.95;100.00
5883;BME280;2967;51.488;6.618;2022-09-17T16:25:07;101065.97;;;14.53;100.00
5883;BME280;2967;51.488;6.618;2022-09-17T16:30:14;101123.16;;;14.82;97.06
5883;BME280;2967;51.488;6.618;2022-09-17T16:35:19;101127.44;;;14.95;93.32
5883;BME280;2967;51.488;6.618;2022-09-17T16:40:24;101129.25;;;14.95;93.24
5883;BME280;2967;51.488;6.618;2022-09-17T16:45:30;100995.75;;;13.97;93.48
5883;BME280;2967;51.488;6.618;2022-09-17T16:50:34;101121.22;;;14.73;94.58
5883;BME280;2967;51.488;6.618;2022-09-17T16:55:42;101131.88;;;14.84;94.35
5883;BME280;2967;51.488;6.618;2022-09-17T17:00:46;101088.50;;;14.60;94.09
5883;BME280;2967;51.488;6.618;2022-09-17T17:05:49;101145.56;;;14.90;93.83
5883;BME280;2967;51.488;6.618;2022-09-17T17:14:23;101141.81;;;14.82;94.92
5883;BME280;2967;51.488;6.618;2022-09-17T17:19:26;101137.22;;;14.84;94.47
5883;BME280;2967;51.488;6.618;2022-09-17T17:24:30;101154.63;;;14.77;94.30
5883;BME280;2967;51.488;6.618;2022-09-17T17:29:35;101144.72;;;14.79;94.80
5883;BME280;2967;51.488;6.618;2022-09-17T17:34:37;101147.38;;;14.79;94.61
5883;BME280;2967;51.488;6.618;2022-09-17T17:39:40;101155.94;;;14.71;94.42
5883;BME280;2967;51.488;6.618;2022-09-17T17:44:44;101150.44;;;14.51;94.58
5883;BME280;2967;51.488;6.618;2022-09-17T17:49:47;101151.06;;;14.54;96.02
5883;BME280;2967;51.488;6.618;2022-09-17T17:54:50;101153.47;;;14.57;96.45
5883;BME280;2967;51.488;6.618;2022-09-17T17:59:54;101164.63;;;14.62;96.12
5883;BME280;2967;51.488;6.618;2022-09-17T18:04:57;101160.19;;;14.74;95.72
5883;BME280;2967;51.488;6.618;2022-09-17T18:10:05;101165.50;;;14.74;95.91
5883;BME280;2967;51.488;6.618;2022-09-17T18:15:10;101162.84;;;14.74;95.92
5883;BME280;2967;51.488;6.618;2022-09-17T18:20:12;101167.81;;;14.78;95.61
5883;BME280;2967;51.488;6.618;2022-09-17T18:25:15;101176.44;;;14.82;95.92
5883;BME280;2967;51.488;6.618;2022-09-17T18:30:19;101171.59;;;14.87;95.61
5883;BME280;2967;51.488;6.618;2022-09-17T18:35:22;101177.78;;;14.87;95.14
5883;BME280;2967;51.488;6.618;2022-09-17T18:40:25;101182.50;;;14.84;95.27
5883;BME280;2967;51.488;6.618;2022-09-17T18:45:29;101175.34;;;14.84;95.17
5883;BME280;2967;51.488;6.618;2022-09-17T18:50:32;101187.38;;;14.90;95.45
5883;BME280;2967;51.488;6.618;2022-09-17T18:55:35;101191.00;;;14.89;95.61
5883;BME280;2967;51.488;6.618;2022-09-17T19:00:40;101191.69;;;14.80;96.38
5883;BME280;2967;51.488;6.618;2022-09-17T19:05:42;101192.31;;;14.83;96.67
5883;BME280;2967;51.488;6.618;2022-09-17T19:10:49;101195.84;;;14.95;95.57
5883;BME280;2967;51.488;6.618;2022-09-17T19:15:57;101206.34;;;14.85;94.96
5883;BME280;2967;51.488;6.618;2022-09-17T19:21:03;101202.00;;;14.84;93.05
5883;BME280;2967;51.488;6.618;2022-09-17T19:26:10;101207.66;;;14.80;94.12
5883;BME280;2967;51.488;6.618;2022-09-17T19:31:18;101218.66;;;14.75;94.11
5883;BME280;2967;51.488;6.618;2022-09-17T19:36:21;101219.06;;;14.58;95.99
5883;BME280;2967;51.488;6.618;2022-09-17T19:41:25;101227.22;;;14.68;95.62
5883;BME280;2967;51.488;6.618;2022-09-17T19:46:30;101235.47;;;14.52;96.65
5883;BME280;2967;51.488;6.618;2022-09-17T19:51:36;101235.03;;;14.58;96.78
5883;BME280;2967;51.488;6.618;2022-09-17T19:56:40;101242.94;;;14.60;97.83
5883;BME280;2967;51.488;6.618;2022-09-17T20:01:46;101238.66;;;14.57;98.86
5883;BME280;2967;51.488;6.618;2022-09-17T20:06:51;101233.41;;;14.45;100.00
5883;BME280;2967;51.488;6.618;2022-09-17T20:11:54;101228.31;;;14.42;100.00
5883;BME280;2967;51.488;6.618;2022-09-17T20:17:02;101228.75;;;14.36;100.00
5883;BME280;2967;51.488;6.618;2022-09-17T20:22:07;101241.56;;;14.31;100.00
5883;BME280;2967;51.488;6.618;2022-09-17T20:27:10;101241.16;;;14.24;100.00
5883;BME280;2967;51.488;6.618;2022-09-17T20:32:15;101245.38;;;14.27;100.00
5883;BME280;2967;51.488;6.618;2022-09-17T20:37:17;101243.69;;;14.26;100.00
5883;BME280;2967;51.488;6.618;2022-09-17T20:42:40;101244.78;;;14.23;100.00
5883;BME280;2967;51.488;6.618;2022-09-17T20:47:46;101256.78;;;14.29;100.00
5883;BME280;2967;51.488;6.618;2022-09-17T20:52:48;101256.66;;;14.30;100.00
5883;BME280;2967;51.488;6.618;2022-09-17T20:57:51;101262.84;;;14.31;100.00
5883;BME280;2967;51.488;6.618;2022-09-17T21:02:56;101274.66;;;14.27;100.00
5883;BME280;2967;51.488;6.618;2022-09-17T21:07:59;101262.44;;;14.12;100.00
5883;BME280;2967;51.488;6.618;2022-09-17T21:13:02;101261.78;;;14.08;100.00
5883;BME280;2967;51.488;6.618;2022-09-17T21:18:06;101247.16;;;13.90;100.00
5883;BME280;2967;51.488;6.618;2022-09-17T21:23:09;101253.97;;;13.94;100.00
5883;BME280;2967;51.488;6.618;2022-09-17T21:28:11;101249.28;;;13.98;100.00
5883;BME280;2967;51.488;6.618;2022-09-17T21:33:15;101260.34;;;14.04;100.00
5883;BME280;2967;51.488;6.618;2022-09-17T21:38:23;101258.19;;;13.97;100.00
5883;BME280;2967;51.488;6.618;2022-09-17T21:43:28;101256.31;;;13.99;100.00
5883;BME280;2967;51.488;6.618;2022-09-17T21:48:36;101257.25;;;13.98;100.00
5883;BME280;2967;51.488;6.618;2022-09-17T21:53:50;101257.88;;;14.01;100.00
5883;BME280;2967;51.488;6.618;2022-09-17T21:58:54;101259.59;;;13.90;100.00
5883;BME280;2967;51.488;6.618;2022-09-17T22:03:59;101261.63;;;13.99;100.00
5883;BME280;2967;51.488;6.618;2022-09-17T22:09:03;101254.38;;;14.01;100.00
5883;BME280;2967;51.488;6.618;2022-09-17T22:14:10;101262.59;;;13.85;100.00
5883;BME280;2967;51.488;6.618;2022-09-17T22:19:16;101258.41;;;13.94;100.00
5883;BME280;2967;51.488;6.618;2022-09-17T22:24:20;101260.75;;;13.86;100.00
5883;BME280;2967;51.488;6.618;2022-09-17T22:29:23;101265.56;;;13.81;100.00
5883;BME280;2967;51.488;6.618;2022-09-17T22:34:27;101267.28;;;13.82;100.00
5883;BME280;2967;51.488;6.618;2022-09-17T22:39:30;101265.13;;;13.87;100.00
5883;BME280;2967;51.488;6.618;2022-09-17T22:44:32;101261.41;;;13.77;100.00
5883;BME280;2967;51.488;6.618;2022-09-17T22:49:36;101267.91;;;13.73;100.00
5883;BME280;2967;51.488;6.618;2022-09-17T22:54:39;101254.94;;;13.56;100.00
5883;BME280;2967;51.488;6.618;2022-09-17T22:59:41;101254.75;;;13.59;100.00
5883;BME280;2967;51.488;6.618;2022-09-17T23:04:45;101246.56;;;13.62;100.00
5883;BME280;2967;51.488;6.618;2022-09-17T23:09:48;101245.03;;;13.70;100.00
5883;BME280;2967;51.488;6.618;2022-09-17T23:14:52;101241.75;;;13.67;100.00
5883;BME280;2967;51.488;6.618;2022-09-17T23:19:56;101240.81;;;13.55;100.00
5883;BME280;2967;51.488;6.618;2022-09-17T23:24:58;101235.38;;;13.57;100.00
5883;BME280;2967;51.488;6.618;2022-09-17T23:30:02;101235.91;;;13.62;100.00
5883;BME280;2967;51.488;6.618;2022-09-17T23:35:07;101235.81;;;13.63;100.00
5883;BME280;2967;51.488;6.618;2022-09-17T23:40:10;101217.41;;;13.60;100.00
5883;BME280;2967;51.488;6.618;2022-09-17T23:45:13;101228.59;;;13.65;100.00
5883;BME280;2967;51.488;6.618;2022-09-17T23:50:17;101226.66;;;13.67;100.00
5883;BME280;2967;51.488;6.618;2022-09-17T23:55:19;101236.88;;;13.73;100.00
